sensor_id;sensor_type;location;lat;lon;timestamp;temperature;humidity
32506;DHT22;18955;51.224;8.482;2023-01-30T00:00:56;6.50;65.90
32506;DHT22;18955;51.224;8.482;2023-01-30T00:03:23;6.50;65.30
32506;DHT22;18955;51.224;8.482;2023-01-30T00:05:49;6.30;66.00
32506;DHT22;18955;51.224;8.482;2023-01-30T00:08:16;6.20;66.50
32506;DHT22;18955;51.224;8.482;2023-01-30T00:10:43;6.50;65.40
32506;DHT22;18955;51.224;8.482;2023-01-30T00:13:09;6.50;65.60
32506;DHT22;18955;51.224;8.482;2023-01-30T00:15:36;6.20;66.40
32506;DHT22;18955;51.224;8.482;2023-01-30T00:18:02;6.40;66.20
32506;DHT22;18955;51.224;8.482;2023-01-30T00:20:29;6.50;65.50
32506;DHT22;18955;51.224;8.482;2023-01-30T00:22:55;6.30;66.00
32506;DHT22;18955;51.224;8.482;2023-01-30T00:25:21;6.20;66.70
32506;DHT22;18955;51.224;8.482;2023-01-30T00:27:47;6.50;65.70
32506;DHT22;18955;51.224;8.482;2023-01-30T00:30:14;6.50;65.60
32506;DHT22;18955;51.224;8.482;2023-01-30T00:32:40;6.30;66.40
32506;DHT22;18955;51.224;8.482;2023-01-30T00:35:06;6.30;66.70
32506;DHT22;18955;51.224;8.482;2023-01-30T00:37:32;6.50;65.80
32506;DHT22;18955;51.224;8.482;2023-01-30T00:39:59;6.30;66.10
32506;DHT22;18955;51.224;8.482;2023-01-30T00:42:26;6.20;66.80
32506;DHT22;18955;51.224;8.482;2023-01-30T00:45:11;6.50;66.00
32506;DHT22;18955;51.224;8.482;2023-01-30T00:47:57;6.50;65.80
32506;DHT22;18955;51.224;8.482;2023-01-30T00:50:23;6.20;66.50
32506;DHT22;18955;51.224;8.482;2023-01-30T00:52:50;6.40;67.10
32506;DHT22;18955;51.224;8.482;2023-01-30T00:55:16;6.50;65.70
32506;DHT22;18955;51.224;8.482;2023-01-30T00:57:44;6.40;66.20
32506;DHT22;18955;51.224;8.482;2023-01-30T01:00:10;6.20;66.80
32506;DHT22;18955;51.224;8.482;2023-01-30T01:02:39;6.50;65.90
32506;DHT22;18955;51.224;8.482;2023-01-30T01:05:06;6.50;65.80
32506;DHT22;18955;51.224;8.482;2023-01-30T01:07:32;6.30;66.50
32506;DHT22;18955;51.224;8.482;2023-01-30T01:09:58;6.40;66.80
32506;DHT22;18955;51.224;8.482;2023-01-30T01:12:24;6.60;65.80
32506;DHT22;18955;51.224;8.482;2023-01-30T01:14:51;6.40;66.10
32506;DHT22;18955;51.224;8.482;2023-01-30T01:17:17;6.20;66.90
32506;DHT22;18955;51.224;8.482;2023-01-30T01:19:43;6.40;66.50
32506;DHT22;18955;51.224;8.482;2023-01-30T01:22:09;6.50;65.90
32506;DHT22;18955;51.224;8.482;2023-01-30T01:24:35;6.30;66.50
32506;DHT22;18955;51.224;8.482;2023-01-30T01:27:02;6.30;67.20
32506;DHT22;18955;51.224;8.482;2023-01-30T01:29:28;6.50;66.10
32506;DHT22;18955;51.224;8.482;2023-01-30T01:31:57;6.50;66.10
32506;DHT22;18955;51.224;8.482;2023-01-30T01:34:23;6.30;66.90
32506;DHT22;18955;51.224;8.482;2023-01-30T01:36:49;6.40;66.80
32506;DHT22;18955;51.224;8.482;2023-01-30T01:39:15;6.60;65.90
32506;DHT22;18955;51.224;8.482;2023-01-30T01:41:42;6.40;66.30
32506;DHT22;18955;51.224;8.482;2023-01-30T01:44:10;6.30;67.00
32506;DHT22;18955;51.224;8.482;2023-01-30T01:46:48;6.50;66.30
32506;DHT22;18955;51.224;8.482;2023-01-30T01:57:02;6.60;66.10
32506;DHT22;18955;51.224;8.482;2023-01-30T01:59:51;6.50;66.40
32506;DHT22;18955;51.224;8.482;2023-01-30T02:02:21;6.30;67.10
32506;DHT22;18955;51.224;8.482;2023-01-30T02:04:54;6.60;66.30
32506;DHT22;18955;51.224;8.482;2023-01-30T02:07:39;6.60;66.10
32506;DHT22;18955;51.224;8.482;2023-01-30T02:10:10;6.30;67.00
32506;DHT22;18955;51.224;8.482;2023-01-30T02:12:39;6.40;67.00
32506;DHT22;18955;51.224;8.482;2023-01-30T02:15:06;6.60;66.10
32506;DHT22;18955;51.224;8.482;2023-01-30T02:17:32;6.40;66.50
32506;DHT22;18955;51.224;8.482;2023-01-30T02:31:21;6.50;66.80
32506;DHT22;18955;51.224;8.482;2023-01-30T02:33:56;6.60;66.10
32506;DHT22;18955;51.224;8.482;2023-01-30T02:42:27;6.70;66.10
32506;DHT22;18955;51.224;8.482;2023-01-30T02:45:09;6.50;66.70
32506;DHT22;18955;51.224;8.482;2023-01-30T02:50:19;6.70;66.50
32506;DHT22;18955;51.224;8.482;2023-01-30T02:52:48;6.60;66.40
32506;DHT22;18955;51.224;8.482;2023-01-30T02:55:20;6.40;67.30
32506;DHT22;18955;51.224;8.482;2023-01-30T02:57:47;6.50;67.30
32506;DHT22;18955;51.224;8.482;2023-01-30T03:00:19;6.70;66.20
32506;DHT22;18955;51.224;8.482;2023-01-30T03:05:46;6.40;67.50
32506;DHT22;18955;51.224;8.482;2023-01-30T03:11:04;6.60;66.50
32506;DHT22;18955;51.224;8.482;2023-01-30T03:13:55;6.40;67.20
32506;DHT22;18955;51.224;8.482;2023-01-30T03:16:34;6.50;67.40
32506;DHT22;18955;51.224;8.482;2023-01-30T03:19:02;6.80;66.30
32506;DHT22;18955;51.224;8.482;2023-01-30T03:21:31;6.60;66.80
32506;DHT22;18955;51.224;8.482;2023-01-30T03:23:58;6.40;67.60
32506;DHT22;18955;51.224;8.482;2023-01-30T03:26:29;6.70;66.80
32506;DHT22;18955;51.224;8.482;2023-01-30T03:28:56;6.80;66.40
32506;DHT22;18955;51.224;8.482;2023-01-30T03:31:22;6.50;67.00
32506;DHT22;18955;51.224;8.482;2023-01-30T03:33:48;6.40;67.70
32506;DHT22;18955;51.224;8.482;2023-01-30T03:36:15;6.70;66.60
32506;DHT22;18955;51.224;8.482;2023-01-30T03:38:41;6.60;66.60
32506;DHT22;18955;51.224;8.482;2023-01-30T03:41:08;6.50;67.40
32506;DHT22;18955;51.224;8.482;2023-01-30T03:43:34;6.50;67.60
32506;DHT22;18955;51.224;8.482;2023-01-30T03:46:02;6.80;66.60
32506;DHT22;18955;51.224;8.482;2023-01-30T03:48:29;6.60;66.80
32506;DHT22;18955;51.224;8.482;2023-01-30T03:50:55;6.40;67.60
32506;DHT22;18955;51.224;8.482;2023-01-30T03:53:22;6.60;67.50
32506;DHT22;18955;51.224;8.482;2023-01-30T03:55:51;6.80;66.60
32506;DHT22;18955;51.224;8.482;2023-01-30T03:58:24;6.60;67.00
32506;DHT22;18955;51.224;8.482;2023-01-30T04:00:50;6.40;67.80
32506;DHT22;18955;51.224;8.482;2023-01-30T04:03:16;6.70;67.10
32506;DHT22;18955;51.224;8.482;2023-01-30T04:05:43;6.70;66.60
32506;DHT22;18955;51.224;8.482;2023-01-30T04:08:09;6.60;67.30
32506;DHT22;18955;51.224;8.482;2023-01-30T04:10:36;6.40;67.90
32506;DHT22;18955;51.224;8.482;2023-01-30T04:13:03;6.80;67.00
32506;DHT22;18955;51.224;8.482;2023-01-30T04:15:31;6.70;66.70
32506;DHT22;18955;51.224;8.482;2023-01-30T04:18:11;6.50;67.30
32506;DHT22;18955;51.224;8.482;2023-01-30T04:21:09;6.50;68.00
32506;DHT22;18955;51.224;8.482;2023-01-30T04:23:38;6.80;66.80
32506;DHT22;18955;51.224;8.482;2023-01-30T04:26:05;6.70;67.10
32506;DHT22;18955;51.224;8.482;2023-01-30T04:28:35;6.40;67.70
32506;DHT22;18955;51.224;8.482;2023-01-30T04:31:03;6.70;67.30
32506;DHT22;18955;51.224;8.482;2023-01-30T04:33:35;6.80;66.70
32506;DHT22;18955;51.224;8.482;2023-01-30T04:36:04;6.60;67.30
32506;DHT22;18955;51.224;8.482;2023-01-30T04:38:31;6.50;68.00
32506;DHT22;18955;51.224;8.482;2023-01-30T04:40:57;6.80;67.00
32506;DHT22;18955;51.224;8.482;2023-01-30T04:43:27;6.80;67.30
32506;DHT22;18955;51.224;8.482;2023-01-30T04:46:13;6.60;67.50
32506;DHT22;18955;51.224;8.482;2023-01-30T04:48:40;6.50;68.00
32506;DHT22;18955;51.224;8.482;2023-01-30T04:51:06;6.80;66.90
32506;DHT22;18955;51.224;8.482;2023-01-30T04:53:33;6.70;67.00
32506;DHT22;18955;51.224;8.482;2023-01-30T04:55:59;6.50;67.70
32506;DHT22;18955;51.224;8.482;2023-01-30T04:58:25;6.60;67.80
32506;DHT22;18955;51.224;8.482;2023-01-30T05:00:52;6.90;66.80
32506;DHT22;18955;51.224;8.482;2023-01-30T05:03:18;6.70;67.20
32506;DHT22;18955;51.224;8.482;2023-01-30T05:05:48;6.50;68.00
32506;DHT22;18955;51.224;8.482;2023-01-30T05:08:14;6.70;67.70
32506;DHT22;18955;51.224;8.482;2023-01-30T05:10:41;6.80;66.90
32506;DHT22;18955;51.224;8.482;2023-01-30T05:13:07;6.70;67.40
32506;DHT22;18955;51.224;8.482;2023-01-30T05:15:33;6.50;68.10
32506;DHT22;18955;51.224;8.482;2023-01-30T05:18:00;6.80;67.50
32506;DHT22;18955;51.224;8.482;2023-01-30T05:20:26;6.80;66.90
32506;DHT22;18955;51.224;8.482;2023-01-30T05:22:52;6.70;67.40
32506;DHT22;18955;51.224;8.482;2023-01-30T05:25:18;6.50;68.10
32506;DHT22;18955;51.224;8.482;2023-01-30T05:27:44;6.80;67.40
32506;DHT22;18955;51.224;8.482;2023-01-30T05:30:11;6.90;66.90
32506;DHT22;18955;51.224;8.482;2023-01-30T05:32:37;6.70;67.60
32506;DHT22;18955;51.224;8.482;2023-01-30T05:35:03;6.60;68.20
32506;DHT22;18955;51.224;8.482;2023-01-30T05:37:30;6.90;67.30
32506;DHT22;18955;51.224;8.482;2023-01-30T05:39:56;6.90;67.00
32506;DHT22;18955;51.224;8.482;2023-01-30T05:42:22;6.70;67.60
32506;DHT22;18955;51.224;8.482;2023-01-30T05:44:48;6.60;68.20
32506;DHT22;18955;51.224;8.482;2023-01-30T05:47:14;6.90;67.30
32506;DHT22;18955;51.224;8.482;2023-01-30T05:49:40;6.90;67.00
32506;DHT22;18955;51.224;8.482;2023-01-30T05:52:06;6.70;67.70
32506;DHT22;18955;51.224;8.482;2023-01-30T05:54:33;6.60;68.30
32506;DHT22;18955;51.224;8.482;2023-01-30T05:57:00;6.90;67.30
32506;DHT22;18955;51.224;8.482;2023-01-30T05:59:26;6.90;67.00
32506;DHT22;18955;51.224;8.482;2023-01-30T06:01:52;6.70;67.70
32506;DHT22;18955;51.224;8.482;2023-01-30T06:04:21;6.60;68.30
32506;DHT22;18955;51.224;8.482;2023-01-30T06:06:48;7.00;67.30
32506;DHT22;18955;51.224;8.482;2023-01-30T06:09:15;6.90;67.10
32506;DHT22;18955;51.224;8.482;2023-01-30T06:11:41;6.70;67.80
32506;DHT22;18955;51.224;8.482;2023-01-30T06:14:08;6.70;68.40
32506;DHT22;18955;51.224;8.482;2023-01-30T06:16:34;7.00;67.10
32506;DHT22;18955;51.224;8.482;2023-01-30T06:19:00;6.90;67.00
32506;DHT22;18955;51.224;8.482;2023-01-30T06:21:26;6.70;67.90
32506;DHT22;18955;51.224;8.482;2023-01-30T06:23:52;6.70;68.30
32506;DHT22;18955;51.224;8.482;2023-01-30T06:26:19;7.00;67.10
32506;DHT22;18955;51.224;8.482;2023-01-30T06:28:45;6.90;67.10
32506;DHT22;18955;51.224;8.482;2023-01-30T06:31:11;6.70;67.80
32506;DHT22;18955;51.224;8.482;2023-01-30T06:33:37;6.70;68.40
32506;DHT22;18955;51.224;8.482;2023-01-30T06:36:04;7.00;67.20
32506;DHT22;18955;51.224;8.482;2023-01-30T06:38:30;7.00;67.20
32506;DHT22;18955;51.224;8.482;2023-01-30T06:40:56;6.80;67.90
32506;DHT22;18955;51.224;8.482;2023-01-30T06:43:22;6.70;68.40
32506;DHT22;18955;51.224;8.482;2023-01-30T06:45:48;7.10;67.00
32506;DHT22;18955;51.224;8.482;2023-01-30T06:48:15;7.00;67.20
32506;DHT22;18955;51.224;8.482;2023-01-30T06:50:41;6.80;68.30
32506;DHT22;18955;51.224;8.482;2023-01-30T06:53:07;6.80;68.40
32506;DHT22;18955;51.224;8.482;2023-01-30T06:55:35;7.10;67.20
32506;DHT22;18955;51.224;8.482;2023-01-30T06:58:04;7.00;67.30
32506;DHT22;18955;51.224;8.482;2023-01-30T07:00:30;6.80;68.10
32506;DHT22;18955;51.224;8.482;2023-01-30T07:02:57;6.80;68.30
32506;DHT22;18955;51.224;8.482;2023-01-30T07:05:23;7.10;67.30
32506;DHT22;18955;51.224;8.482;2023-01-30T07:07:50;6.90;67.50
32506;DHT22;18955;51.224;8.482;2023-01-30T07:10:16;6.70;68.30
32506;DHT22;18955;51.224;8.482;2023-01-30T07:12:44;6.80;68.20
32506;DHT22;18955;51.224;8.482;2023-01-30T07:15:11;7.10;67.20
32506;DHT22;18955;51.224;8.482;2023-01-30T07:17:42;7.00;67.50
32506;DHT22;18955;51.224;8.482;2023-01-30T07:20:10;6.70;68.20
32506;DHT22;18955;51.224;8.482;2023-01-30T07:22:36;6.80;68.30
32506;DHT22;18955;51.224;8.482;2023-01-30T07:25:03;7.10;67.50
32506;DHT22;18955;51.224;8.482;2023-01-30T07:27:29;6.90;67.60
32506;DHT22;18955;51.224;8.482;2023-01-30T07:29:55;6.70;68.40
32506;DHT22;18955;51.224;8.482;2023-01-30T07:32:21;6.90;68.30
32506;DHT22;18955;51.224;8.482;2023-01-30T07:34:48;7.10;67.40
32506;DHT22;18955;51.224;8.482;2023-01-30T07:37:14;6.90;68.40
32506;DHT22;18955;51.224;8.482;2023-01-30T07:39:40;6.70;68.60
32506;DHT22;18955;51.224;8.482;2023-01-30T07:42:07;6.90;68.30
32506;DHT22;18955;51.224;8.482;2023-01-30T07:44:34;7.10;67.60
32506;DHT22;18955;51.224;8.482;2023-01-30T07:47:00;6.90;68.00
32506;DHT22;18955;51.224;8.482;2023-01-30T07:49:27;6.70;68.60
32506;DHT22;18955;51.224;8.482;2023-01-30T07:51:53;7.00;68.00
32506;DHT22;18955;51.224;8.482;2023-01-30T07:54:19;7.10;67.50
32506;DHT22;18955;51.224;8.482;2023-01-30T07:56:45;6.90;68.10
32506;DHT22;18955;51.224;8.482;2023-01-30T07:59:11;6.70;68.70
32506;DHT22;18955;51.224;8.482;2023-01-30T08:01:38;7.00;68.00
32506;DHT22;18955;51.224;8.482;2023-01-30T08:04:04;7.10;67.60
32506;DHT22;18955;51.224;8.482;2023-01-30T08:06:30;6.90;68.20
32506;DHT22;18955;51.224;8.482;2023-01-30T08:08:57;6.80;68.80
32506;DHT22;18955;51.224;8.482;2023-01-30T08:11:23;7.10;67.80
32506;DHT22;18955;51.224;8.482;2023-01-30T08:13:49;7.10;67.60
32506;DHT22;18955;51.224;8.482;2023-01-30T08:16:15;6.90;68.20
32506;DHT22;18955;51.224;8.482;2023-01-30T08:18:42;6.80;68.80
32506;DHT22;18955;51.224;8.482;2023-01-30T08:21:09;7.10;67.90
32506;DHT22;18955;51.224;8.482;2023-01-30T08:23:35;7.10;67.60
32506;DHT22;18955;51.224;8.482;2023-01-30T08:26:03;6.90;68.20
32506;DHT22;18955;51.224;8.482;2023-01-30T08:28:30;6.80;68.90
32506;DHT22;18955;51.224;8.482;2023-01-30T08:30:56;7.10;67.80
32506;DHT22;18955;51.224;8.482;2023-01-30T08:33:23;7.10;67.60
32506;DHT22;18955;51.224;8.482;2023-01-30T08:35:50;6.90;68.20
32506;DHT22;18955;51.224;8.482;2023-01-30T08:38:17;6.80;68.90
32506;DHT22;18955;51.224;8.482;2023-01-30T08:40:43;7.20;67.80
32506;DHT22;18955;51.224;8.482;2023-01-30T08:43:09;7.10;67.60
32506;DHT22;18955;51.224;8.482;2023-01-30T08:45:35;6.90;68.30
32506;DHT22;18955;51.224;8.482;2023-01-30T08:48:04;6.80;69.00
32506;DHT22;18955;51.224;8.482;2023-01-30T08:50:31;7.20;67.90
32506;DHT22;18955;51.224;8.482;2023-01-30T08:53:03;7.20;67.80
32506;DHT22;18955;51.224;8.482;2023-01-30T08:55:29;6.90;68.50
32506;DHT22;18955;51.224;8.482;2023-01-30T08:57:56;6.90;69.10
32506;DHT22;18955;51.224;8.482;2023-01-30T09:00:22;7.20;67.70
32506;DHT22;18955;51.224;8.482;2023-01-30T09:02:55;7.10;67.80
32506;DHT22;18955;51.224;8.482;2023-01-30T09:05:22;6.90;68.60
32506;DHT22;18955;51.224;8.482;2023-01-30T09:07:49;6.90;69.00
32506;DHT22;18955;51.224;8.482;2023-01-30T09:10:16;7.20;67.90
32506;DHT22;18955;51.224;8.482;2023-01-30T09:12:42;7.20;68.00
32506;DHT22;18955;51.224;8.482;2023-01-30T09:15:09;6.90;68.60
32506;DHT22;18955;51.224;8.482;2023-01-30T09:17:35;7.00;68.90
32506;DHT22;18955;51.224;8.482;2023-01-30T09:20:05;7.30;67.70
32506;DHT22;18955;51.224;8.482;2023-01-30T09:22:32;7.20;67.80
32506;DHT22;18955;51.224;8.482;2023-01-30T09:24:58;7.00;68.60
32506;DHT22;18955;51.224;8.482;2023-01-30T09:27:24;7.00;68.90
32506;DHT22;18955;51.224;8.482;2023-01-30T09:29:51;7.30;67.80
32506;DHT22;18955;51.224;8.482;2023-01-30T09:32:17;7.20;68.00
32506;DHT22;18955;51.224;8.482;2023-01-30T09:34:43;7.00;68.70
32506;DHT22;18955;51.224;8.482;2023-01-30T09:37:09;7.10;69.00
32506;DHT22;18955;51.224;8.482;2023-01-30T09:39:35;7.30;67.80
32506;DHT22;18955;51.224;8.482;2023-01-30T09:44:44;7.00;68.90
32506;DHT22;18955;51.224;8.482;2023-01-30T09:47:53;7.10;69.00
32506;DHT22;18955;51.224;8.482;2023-01-30T09:56:12;7.10;69.20
32506;DHT22;18955;51.224;8.482;2023-01-30T09:58:58;7.40;68.10
32506;DHT22;18955;51.224;8.482;2023-01-30T10:01:29;7.30;68.40
32506;DHT22;18955;51.224;8.482;2023-01-30T10:06:35;7.20;68.90
32506;DHT22;18955;51.224;8.482;2023-01-30T10:09:12;7.30;67.90
32506;DHT22;18955;51.224;8.482;2023-01-30T10:14:54;7.00;69.10
32506;DHT22;18955;51.224;8.482;2023-01-30T10:17:32;7.40;68.40
32506;DHT22;18955;51.224;8.482;2023-01-30T10:20:59;7.30;68.00
32506;DHT22;18955;51.224;8.482;2023-01-30T10:26:04;7.20;69.20
32506;DHT22;18955;51.224;8.482;2023-01-30T10:31:15;7.30;68.50
32506;DHT22;18955;51.224;8.482;2023-01-30T10:33:50;7.00;69.30
32506;DHT22;18955;51.224;8.482;2023-01-30T10:36:26;7.30;68.70
32506;DHT22;18955;51.224;8.482;2023-01-30T10:38:56;7.40;68.00
32506;DHT22;18955;51.224;8.482;2023-01-30T10:41:52;7.30;68.60
32506;DHT22;18955;51.224;8.482;2023-01-30T10:44:21;7.10;69.20
32506;DHT22;18955;51.224;8.482;2023-01-30T10:49:54;7.40;68.00
32506;DHT22;18955;51.224;8.482;2023-01-30T11:01:04;7.40;68.60
32506;DHT22;18955;51.224;8.482;2023-01-30T11:03:49;7.10;69.30
32506;DHT22;18955;51.224;8.482;2023-01-30T11:06:21;7.30;68.90
32506;DHT22;18955;51.224;8.482;2023-01-30T11:08:52;7.50;68.20
32506;DHT22;18955;51.224;8.482;2023-01-30T11:11:23;7.30;68.80
32506;DHT22;18955;51.224;8.482;2023-01-30T11:13:50;7.10;69.30
32506;DHT22;18955;51.224;8.482;2023-01-30T11:16:25;7.40;68.60
32506;DHT22;18955;51.224;8.482;2023-01-30T11:18:52;7.50;68.20
32506;DHT22;18955;51.224;8.482;2023-01-30T11:21:24;7.30;68.80
32506;DHT22;18955;51.224;8.482;2023-01-30T11:23:53;7.10;69.40
32506;DHT22;18955;51.224;8.482;2023-01-30T11:26:24;7.50;68.70
32506;DHT22;18955;51.224;8.482;2023-01-30T11:28:54;7.50;68.10
32506;DHT22;18955;51.224;8.482;2023-01-30T11:31:28;7.30;68.70
32506;DHT22;18955;51.224;8.482;2023-01-30T11:34:04;7.20;69.40
32506;DHT22;18955;51.224;8.482;2023-01-30T11:36:34;7.40;68.60
32506;DHT22;18955;51.224;8.482;2023-01-30T11:39:19;7.50;68.10
32506;DHT22;18955;51.224;8.482;2023-01-30T11:44:58;7.10;69.40
32506;DHT22;18955;51.224;8.482;2023-01-30T11:47:27;7.50;68.40
32506;DHT22;18955;51.224;8.482;2023-01-30T11:49:55;7.50;68.30
32506;DHT22;18955;51.224;8.482;2023-01-30T11:52:29;7.30;69.10
32506;DHT22;18955;51.224;8.482;2023-01-30T11:55:01;7.20;69.60
32506;DHT22;18955;51.224;8.482;2023-01-30T11:57:49;7.50;68.50
32506;DHT22;18955;51.224;8.482;2023-01-30T12:00:26;7.50;68.60
32506;DHT22;18955;51.224;8.482;2023-01-30T12:02:55;7.20;69.20
32506;DHT22;18955;51.224;8.482;2023-01-30T12:05:39;7.20;69.50
32506;DHT22;18955;51.224;8.482;2023-01-30T12:08:23;7.60;68.10
32506;DHT22;18955;51.224;8.482;2023-01-30T12:10:54;7.50;68.50
32506;DHT22;18955;51.224;8.482;2023-01-30T12:13:32;7.20;69.20
32506;DHT22;18955;51.224;8.482;2023-01-30T12:16:10;7.30;69.30
32506;DHT22;18955;51.224;8.482;2023-01-30T12:19:04;7.60;68.00
32506;DHT22;18955;51.224;8.482;2023-01-30T12:32:37;7.40;69.00
32506;DHT22;18955;51.224;8.482;2023-01-30T12:35:14;7.20;69.40
32506;DHT22;18955;51.224;8.482;2023-01-30T12:37:53;7.50;68.50
32506;DHT22;18955;51.224;8.482;2023-01-30T12:45:58;7.20;69.60
32506;DHT22;18955;51.224;8.482;2023-01-30T12:59:17;7.60;68.30
32506;DHT22;18955;51.224;8.482;2023-01-30T13:01:55;7.50;68.80
32506;DHT22;18955;51.224;8.482;2023-01-30T13:04:54;7.30;69.40
32506;DHT22;18955;51.224;8.482;2023-01-30T13:13:00;7.40;69.00
32506;DHT22;18955;51.224;8.482;2023-01-30T13:18:33;7.60;68.60
32506;DHT22;18955;51.224;8.482;2023-01-30T13:23:57;7.40;69.10
32506;DHT22;18955;51.224;8.482;2023-01-30T13:26:33;7.30;69.70
32506;DHT22;18955;51.224;8.482;2023-01-30T13:29:06;7.70;68.30
32506;DHT22;18955;51.224;8.482;2023-01-30T13:31:40;7.60;68.50
32506;DHT22;18955;51.224;8.482;2023-01-30T13:34:16;7.40;69.20
32506;DHT22;18955;51.224;8.482;2023-01-30T13:36:50;7.30;69.60
32506;DHT22;18955;51.224;8.482;2023-01-30T13:42:00;7.50;68.50
32506;DHT22;18955;51.224;8.482;2023-01-30T13:44:29;7.30;69.30
32506;DHT22;18955;51.224;8.482;2023-01-30T13:47:02;7.40;69.60
32506;DHT22;18955;51.224;8.482;2023-01-30T14:00:35;7.70;68.20
32506;DHT22;18955;51.224;8.482;2023-01-30T14:08:39;7.50;69.30
32506;DHT22;18955;51.224;8.482;2023-01-30T14:13:59;7.50;69.00
32506;DHT22;18955;51.224;8.482;2023-01-30T14:16:39;7.30;69.60
32506;DHT22;18955;51.224;8.482;2023-01-30T14:19:40;7.50;69.10
32506;DHT22;18955;51.224;8.482;2023-01-30T14:38:20;7.30;69.80
32506;DHT22;18955;51.224;8.482;2023-01-30T14:57:04;7.40;69.40
32506;DHT22;18955;51.224;8.482;2023-01-30T15:07:25;7.30;69.70
32506;DHT22;18955;51.224;8.482;2023-01-30T15:10:00;7.50;69.50
32506;DHT22;18955;51.224;8.482;2023-01-30T15:32:29;7.70;68.40
32506;DHT22;18955;51.224;8.482;2023-01-30T15:35:40;7.60;68.90
32506;DHT22;18955;51.224;8.482;2023-01-30T15:37:55;7.30;69.60
32506;DHT22;18955;51.224;8.482;2023-01-30T15:43:06;7.70;68.50
32506;DHT22;18955;51.224;8.482;2023-01-30T15:45:46;7.50;68.90
32506;DHT22;18955;51.224;8.482;2023-01-30T15:50:55;7.50;69.60
32506;DHT22;18955;51.224;8.482;2023-01-30T15:53:29;7.60;68.50
32506;DHT22;18955;51.224;8.482;2023-01-30T15:56:00;7.50;69.10
32506;DHT22;18955;51.224;8.482;2023-01-30T15:58:28;7.30;69.80
32506;DHT22;18955;51.224;8.482;2023-01-30T16:00:56;7.40;69.60
32506;DHT22;18955;51.224;8.482;2023-01-30T16:03:32;7.70;68.50
32506;DHT22;18955;51.224;8.482;2023-01-30T16:06:01;7.60;69.00
32506;DHT22;18955;51.224;8.482;2023-01-30T16:08:33;7.30;69.70
32506;DHT22;18955;51.224;8.482;2023-01-30T16:11:00;7.40;69.70
32506;DHT22;18955;51.224;8.482;2023-01-30T16:13:27;7.70;68.60
32506;DHT22;18955;51.224;8.482;2023-01-30T16:16:00;7.60;68.80
32506;DHT22;18955;51.224;8.482;2023-01-30T16:26:18;7.60;68.70
32506;DHT22;18955;51.224;8.482;2023-01-30T16:28:48;7.40;69.50
32506;DHT22;18955;51.224;8.482;2023-01-30T16:31:16;7.30;69.90
32506;DHT22;18955;51.224;8.482;2023-01-30T16:33:52;7.70;68.80
32506;DHT22;18955;51.224;8.482;2023-01-30T16:38:45;7.40;69.50
32506;DHT22;18955;51.224;8.482;2023-01-30T16:41:37;7.30;69.90
32506;DHT22;18955;51.224;8.482;2023-01-30T16:47:02;7.60;68.80
32506;DHT22;18955;51.224;8.482;2023-01-30T16:59:48;7.40;69.70
32506;DHT22;18955;51.224;8.482;2023-01-30T17:02:27;7.40;69.90
32506;DHT22;18955;51.224;8.482;2023-01-30T17:04:55;7.70;68.60
32506;DHT22;18955;51.224;8.482;2023-01-30T17:07:35;7.60;68.80
32506;DHT22;18955;51.224;8.482;2023-01-30T17:10:02;7.30;69.50
32506;DHT22;18955;51.224;8.482;2023-01-30T17:17:42;7.60;68.80
32506;DHT22;18955;51.224;8.482;2023-01-30T17:20:09;7.40;69.60
32506;DHT22;18955;51.224;8.482;2023-01-30T17:22:38;7.30;70.00
32506;DHT22;18955;51.224;8.482;2023-01-30T17:25:12;7.60;68.70
32506;DHT22;18955;51.224;8.482;2023-01-30T17:27:39;7.60;68.70
32506;DHT22;18955;51.224;8.482;2023-01-30T17:30:16;7.40;69.40
32506;DHT22;18955;51.224;8.482;2023-01-30T17:32:43;7.30;70.00
32506;DHT22;18955;51.224;8.482;2023-01-30T17:35:11;7.70;68.80
32506;DHT22;18955;51.224;8.482;2023-01-30T17:37:37;7.60;68.60
32506;DHT22;18955;51.224;8.482;2023-01-30T17:40:17;7.40;69.30
32506;DHT22;18955;51.224;8.482;2023-01-30T17:42:44;7.30;69.90
32506;DHT22;18955;51.224;8.482;2023-01-30T17:45:11;7.60;69.00
32506;DHT22;18955;51.224;8.482;2023-01-30T17:47:37;7.60;68.60
32506;DHT22;18955;51.224;8.482;2023-01-30T17:50:04;7.50;69.20
32506;DHT22;18955;51.224;8.482;2023-01-30T17:52:30;7.30;69.80
32506;DHT22;18955;51.224;8.482;2023-01-30T17:54:57;7.50;69.20
32506;DHT22;18955;51.224;8.482;2023-01-30T17:57:23;7.70;68.50
32506;DHT22;18955;51.224;8.482;2023-01-30T17:59:51;7.50;69.00
32506;DHT22;18955;51.224;8.482;2023-01-30T18:02:17;7.30;69.70
32506;DHT22;18955;51.224;8.482;2023-01-30T18:04:43;7.40;69.60
32506;DHT22;18955;51.224;8.482;2023-01-30T18:07:12;7.70;68.40
32506;DHT22;18955;51.224;8.482;2023-01-30T18:09:39;7.60;68.80
32506;DHT22;18955;51.224;8.482;2023-01-30T18:12:05;7.30;69.50
32506;DHT22;18955;51.224;8.482;2023-01-30T18:14:31;7.40;69.90
32506;DHT22;18955;51.224;8.482;2023-01-30T18:16:58;7.70;68.60
32506;DHT22;18955;51.224;8.482;2023-01-30T18:19:26;7.60;68.60
32506;DHT22;18955;51.224;8.482;2023-01-30T18:21:53;7.40;69.30
32506;DHT22;18955;51.224;8.482;2023-01-30T18:24:19;7.30;69.90
32506;DHT22;18955;51.224;8.482;2023-01-30T18:26:46;7.60;68.80
32506;DHT22;18955;51.224;8.482;2023-01-30T18:29:12;7.60;68.60
32506;DHT22;18955;51.224;8.482;2023-01-30T18:31:39;7.40;69.10
32506;DHT22;18955;51.224;8.482;2023-01-30T18:34:06;7.20;69.80
32506;DHT22;18955;51.224;8.482;2023-01-30T18:36:33;7.50;69.00
32506;DHT22;18955;51.224;8.482;2023-01-30T18:39:00;7.60;68.50
32506;DHT22;18955;51.224;8.482;2023-01-30T18:41:27;7.40;69.10
32506;DHT22;18955;51.224;8.482;2023-01-30T18:43:59;7.20;69.70
32506;DHT22;18955;51.224;8.482;2023-01-30T18:46:26;7.50;69.30
32506;DHT22;18955;51.224;8.482;2023-01-30T18:48:53;7.70;68.40
32506;DHT22;18955;51.224;8.482;2023-01-30T18:51:23;7.50;68.90
32506;DHT22;18955;51.224;8.482;2023-01-30T18:53:52;7.30;69.70
32506;DHT22;18955;51.224;8.482;2023-01-30T18:56:27;7.40;69.50
32506;DHT22;18955;51.224;8.482;2023-01-30T18:58:55;7.60;68.40
32506;DHT22;18955;51.224;8.482;2023-01-30T19:01:23;7.50;68.90
32506;DHT22;18955;51.224;8.482;2023-01-30T19:03:56;7.30;69.70
32506;DHT22;18955;51.224;8.482;2023-01-30T19:06:23;7.40;69.60
32506;DHT22;18955;51.224;8.482;2023-01-30T19:08:50;7.70;68.20
32506;DHT22;18955;51.224;8.482;2023-01-30T19:11:19;7.50;68.70
32506;DHT22;18955;51.224;8.482;2023-01-30T19:14:04;7.30;69.50
32506;DHT22;18955;51.224;8.482;2023-01-30T19:16:33;7.40;69.60
32506;DHT22;18955;51.224;8.482;2023-01-30T19:19:00;7.60;68.30
32506;DHT22;18955;51.224;8.482;2023-01-30T19:21:26;7.50;68.80
32506;DHT22;18955;51.224;8.482;2023-01-30T19:23:53;7.30;69.50
32506;DHT22;18955;51.224;8.482;2023-01-30T19:26:22;7.30;69.80
32506;DHT22;18955;51.224;8.482;2023-01-30T19:28:49;7.60;68.60
32506;DHT22;18955;51.224;8.482;2023-01-30T19:31:16;7.50;68.80
32506;DHT22;18955;51.224;8.482;2023-01-30T19:33:44;7.30;69.50
32506;DHT22;18955;51.224;8.482;2023-01-30T19:36:16;7.20;69.80
32506;DHT22;18955;51.224;8.482;2023-01-30T19:38:44;7.60;68.60
32506;DHT22;18955;51.224;8.482;2023-01-30T19:41:12;7.50;68.70
32506;DHT22;18955;51.224;8.482;2023-01-30T19:43:39;7.30;69.30